SBTE

Details ICAO SBTE (THE)
Name Senador Petronio Portella
Region Brazil
Timezone America/Fortaleza (UTC-3.0)
Plans Departing 38
Arriving 29
Stats Elevation 219 ft / 67 m (AMSL)
Location -5.059940° -42.823478°
Runways 1
Magnetic Variation 21.543° W
Sunrise 2017-12-12 08:34:13 UTC / 2017-12-12 05:34:13 Local
Sunset 2017-12-12 20:58:48 UTC / 2017-12-12 17:58:48 Local
Advertisement - Login to hide

Runways

ID Width Length Bearing (true) Bearing (mag) Surface Threshold Offset Overrun Length
02 148 ft / 45 m 7,246 ft / 2,209 m 354.11° 15.65° Asphalt 0 ft / 0 m 190 ft / 58 m
20 148 ft / 45 m 7,246 ft / 2,209 m 174.12° 195.66° Asphalt 0 ft / 0 m 190 ft / 58 m

Map

Weather


0- 5 10 15 20 25 30 35+ Temperature / ° C

Clouds and Precipitation
Forecast for 2017-12-12 12:00 UTC. Updated an hour ago

Ground ~20,000 ft ~40,000 ft Winds

METAR

SBTE 121200Z 06002KT 9999 SCT030 BKN080 30/21 Q1012

TAF

TAF SBTE 121000Z 1212/1224 34007KT 9999 SCT030 TN30/1212Z TX36/1218Z RMK PEI

Frequencies

Recorded 127.80 MHz TERESINA ATIS
Approach 119.60 MHz TERESINA APP
Tower 118.80 MHz TWR
Warning: Do not use this data for real-world aviation or navigation. No guarantee of current accuracy is given.